createdAt,value
2022-11-02T00:00:25.536Z,26.80
2022-11-02T00:03:12.369Z,27.20
2022-11-02T00:05:39.452Z,25.90
2022-11-02T00:08:06.550Z,26.90
2022-11-02T00:10:33.368Z,25.90
2022-11-02T00:13:00.464Z,25.90
2022-11-02T00:15:31.805Z,26.70
2022-11-02T00:20:31.463Z,26.00
2022-11-02T00:23:02.705Z,26.60
2022-11-02T00:25:31.066Z,26.90
2022-11-02T00:27:58.319Z,28.10
2022-11-02T00:30:25.371Z,27.40
2022-11-02T00:32:53.167Z,27.10
2022-11-02T00:35:20.272Z,28.60
2022-11-02T00:37:47.205Z,28.50
2022-11-02T00:40:14.832Z,27.20
2022-11-02T00:42:41.696Z,27.30
2022-11-02T00:45:10.758Z,26.10
2022-11-02T00:47:38.040Z,28.40
2022-11-02T00:50:05.302Z,27.60
2022-11-02T00:52:32.776Z,27.30
2022-11-02T00:55:00.109Z,28.50
2022-11-02T00:57:27.712Z,28.90
2022-11-02T00:59:54.832Z,29.20
2022-11-02T01:02:21.836Z,29.40
2022-11-02T01:04:48.837Z,28.80
2022-11-02T01:07:15.749Z,28.80
2022-11-02T01:09:42.620Z,29.20
2022-11-02T01:12:09.743Z,28.40
2022-11-02T01:14:37.759Z,29.10
2022-11-02T01:17:04.865Z,27.70
2022-11-02T01:19:31.776Z,27.70
2022-11-02T01:21:58.881Z,27.10
2022-11-02T01:24:25.825Z,26.50
2022-11-02T01:26:54.204Z,26.80
2022-11-02T01:29:21.584Z,27.70
2022-11-02T01:31:48.643Z,28.50
2022-11-02T01:34:17.692Z,28.50
2022-11-02T01:36:48.112Z,30.30
2022-11-02T01:39:17.645Z,30.90
2022-11-02T01:41:45.261Z,30.60
2022-11-02T01:44:30.187Z,30.90
2022-11-02T01:47:00.683Z,28.80
2022-11-02T01:49:29.030Z,29.40
2022-11-02T01:52:04.179Z,29.60
2022-11-02T01:54:38.003Z,27.80
2022-11-02T01:57:07.910Z,33.30
2022-11-02T01:59:40.554Z,31.60
2022-11-02T02:02:12.843Z,32.50
2022-11-02T02:04:40.359Z,31.30
2022-11-02T02:07:07.158Z,31.50
2022-11-02T02:09:35.965Z,32.90
2022-11-02T02:12:02.829Z,32.60
2022-11-02T02:14:29.901Z,34.50
2022-11-02T02:17:09.195Z,36.90
2022-11-02T02:19:49.388Z,38.10
2022-11-02T02:22:54.455Z,37.80
2022-11-02T02:25:48.102Z,37.70
2022-11-02T02:28:21.183Z,37.40
2022-11-02T02:30:52.460Z,38.60
2022-11-02T02:33:28.330Z,41.10
2022-11-02T02:36:00.825Z,41.10
2022-11-02T02:38:33.840Z,40.40
2022-11-02T02:41:11.129Z,41.10
2022-11-02T02:43:43.159Z,42.40
2022-11-02T02:46:14.699Z,43.90
2022-11-02T02:48:44.944Z,42.50
2022-11-02T02:51:16.913Z,42.70
2022-11-02T02:53:48.455Z,44.20
2022-11-02T02:56:20.061Z,44.00
2022-11-02T02:58:52.847Z,45.40
2022-11-02T03:01:21.057Z,45.60
2022-11-02T03:03:48.312Z,46.50
2022-11-02T03:06:21.202Z,46.30
2022-11-02T03:09:04.923Z,46.30
2022-11-02T03:11:33.949Z,47.20
2022-11-02T03:14:22.912Z,48.40
2022-11-02T03:17:04.350Z,46.50
2022-11-02T03:19:43.222Z,46.70
2022-11-02T03:22:22.994Z,48.00
2022-11-02T03:25:00.337Z,47.50
2022-11-02T03:27:36.874Z,48.30
2022-11-02T03:30:09.698Z,47.90
2022-11-02T03:32:42.171Z,46.40
2022-11-02T03:35:16.669Z,47.40
2022-11-02T03:37:48.012Z,47.30
2022-11-02T03:40:20.372Z,48.00
2022-11-02T03:42:49.368Z,47.60
2022-11-02T03:45:19.943Z,44.70
2022-11-02T03:47:53.316Z,45.70
2022-11-02T03:50:24.491Z,47.50
2022-11-02T03:52:55.506Z,46.10
2022-11-02T03:55:27.299Z,47.20
2022-11-02T03:57:55.371Z,46.50
2022-11-02T04:00:29.222Z,47.50
2022-11-02T04:03:04.024Z,47.50
2022-11-02T04:05:34.355Z,47.60
2022-11-02T04:08:24.612Z,49.40
2022-11-02T04:11:14.375Z,50.00
2022-11-02T04:14:00.072Z,51.30
2022-11-02T04:16:28.608Z,50.80
2022-11-02T04:19:13.728Z,49.50
2022-11-02T04:21:41.411Z,48.10
2022-11-02T04:24:26.949Z,49.60
2022-11-02T04:26:53.788Z,48.10
2022-11-02T04:29:20.836Z,50.50
2022-11-02T04:31:48.172Z,49.50
2022-11-02T04:34:15.212Z,50.90
2022-11-02T04:36:42.193Z,50.10
2022-11-02T04:39:09.566Z,51.70
2022-11-02T04:41:42.649Z,53.40
2022-11-02T04:44:16.142Z,50.60
2022-11-02T04:46:46.719Z,48.20
2022-11-02T04:49:14.414Z,52.70
2022-11-02T04:51:45.763Z,50.40
2022-11-02T04:54:16.192Z,50.20
2022-11-02T04:56:43.707Z,49.30
2022-11-02T04:59:11.541Z,48.60
2022-11-02T05:01:38.773Z,47.90
2022-11-02T05:04:06.327Z,48.60
2022-11-02T05:06:37.378Z,50.10
2022-11-02T05:09:06.184Z,51.70
2022-11-02T05:11:33.303Z,51.90
2022-11-02T05:14:00.647Z,48.90
2022-11-02T05:16:28.564Z,50.40
2022-11-02T05:18:55.466Z,51.80
2022-11-02T05:21:23.322Z,51.10
2022-11-02T05:23:50.518Z,50.40
2022-11-02T05:26:17.680Z,51.20
2022-11-02T05:28:46.780Z,50.40
2022-11-02T05:31:13.799Z,52.00
2022-11-02T05:33:40.767Z,50.00
2022-11-02T05:36:12.773Z,53.90
2022-11-02T05:38:40.916Z,52.30
2022-11-02T05:41:08.533Z,52.40
2022-11-02T05:43:36.511Z,50.50
2022-11-02T05:46:05.643Z,52.90
2022-11-02T05:48:33.868Z,55.30
2022-11-02T05:51:03.365Z,50.70
2022-11-02T05:53:32.705Z,52.20
2022-11-02T05:56:02.272Z,51.30
2022-11-02T05:58:29.616Z,50.70
2022-11-02T06:00:59.750Z,52.00
2022-11-02T06:03:26.888Z,49.80
2022-11-02T06:06:00.912Z,47.80
2022-11-02T06:08:28.545Z,46.80
2022-11-02T06:10:55.382Z,47.70
2022-11-02T06:13:22.383Z,45.80
2022-11-02T06:15:49.201Z,45.00
2022-11-02T06:18:15.972Z,44.40
2022-11-02T06:20:42.844Z,41.60
2022-11-02T06:23:09.706Z,43.50
2022-11-02T06:25:36.613Z,40.60
2022-11-02T06:28:03.459Z,41.70
2022-11-02T06:30:30.370Z,41.20
2022-11-02T06:32:58.684Z,40.10
2022-11-02T06:35:28.462Z,37.40
2022-11-02T06:37:55.501Z,38.40
2022-11-02T06:40:25.646Z,36.30
2022-11-02T06:45:46.907Z,34.90
2022-11-02T06:48:13.940Z,34.90
2022-11-02T06:50:40.828Z,35.20
2022-11-02T06:53:07.856Z,35.60
2022-11-02T06:55:34.832Z,34.70
2022-11-02T06:58:01.731Z,33.40
2022-11-02T07:00:29.703Z,30.00
2022-11-02T07:03:04.291Z,30.20
2022-11-02T07:05:31.940Z,28.70
2022-11-02T07:07:59.349Z,28.40
2022-11-02T07:10:26.834Z,27.30
2022-11-02T07:12:56.298Z,28.50
2022-11-02T07:15:24.275Z,26.20
2022-11-02T07:17:51.913Z,26.30
2022-11-02T07:20:19.452Z,28.00
2022-11-02T07:22:55.177Z,28.40
2022-11-02T07:25:22.300Z,28.00
2022-11-02T07:27:49.171Z,27.00
2022-11-02T07:30:16.770Z,27.70
2022-11-02T07:32:44.584Z,26.00
2022-11-02T07:35:13.514Z,25.50
2022-11-02T07:37:41.050Z,26.20
2022-11-02T07:40:10.720Z,27.10
2022-11-02T07:42:37.671Z,27.60
2022-11-02T07:45:07.165Z,27.20
2022-11-02T07:47:34.055Z,26.90
2022-11-02T07:50:02.192Z,27.40
2022-11-02T07:52:29.403Z,28.40
2022-11-02T07:54:56.866Z,28.00
2022-11-02T07:57:23.760Z,27.60
2022-11-02T07:59:50.743Z,28.60
2022-11-02T08:02:17.711Z,29.00
2022-11-02T08:04:45.225Z,28.50
2022-11-02T08:07:13.292Z,28.40
2022-11-02T08:09:40.218Z,27.70
2022-11-02T08:12:12.075Z,26.60
2022-11-02T08:14:38.955Z,27.40
2022-11-02T08:17:06.267Z,28.40
2022-11-02T08:19:33.273Z,27.70
2022-11-02T08:22:00.351Z,25.40
2022-11-02T08:24:27.222Z,25.70
2022-11-02T08:26:55.016Z,25.30
2022-11-02T08:29:22.124Z,25.40
2022-11-02T08:31:50.612Z,25.50
2022-11-02T08:34:17.619Z,24.00
2022-11-02T08:36:44.822Z,26.60
2022-11-02T08:39:17.515Z,25.40
2022-11-02T08:41:45.732Z,25.20
2022-11-02T08:44:12.599Z,26.30
2022-11-02T08:46:39.792Z,26.40
2022-11-02T08:49:06.752Z,26.90
2022-11-02T08:51:33.708Z,26.90
2022-11-02T08:54:00.635Z,26.20
2022-11-02T08:56:27.551Z,27.60
2022-11-02T08:58:54.582Z,26.00
2022-11-02T09:01:23.597Z,26.10
2022-11-02T09:03:50.533Z,27.20
2022-11-02T09:06:17.613Z,26.70
2022-11-02T09:08:44.874Z,28.10
2022-11-02T09:11:12.398Z,24.90
2022-11-02T09:13:40.639Z,24.30
2022-11-02T09:16:09.810Z,26.00
2022-11-02T09:18:36.817Z,25.20
2022-11-02T09:21:05.943Z,26.50
2022-11-02T09:23:33.453Z,27.30
2022-11-02T09:26:01.423Z,26.90
2022-11-02T09:28:28.641Z,27.10
2022-11-02T09:30:55.781Z,26.70
2022-11-02T09:33:25.261Z,26.40
2022-11-02T09:35:52.312Z,25.80
2022-11-02T09:38:19.893Z,24.30
2022-11-02T09:40:52.892Z,24.60
2022-11-02T09:43:32.643Z,24.00
2022-11-02T09:46:03.396Z,23.40
2022-11-02T09:48:36.356Z,22.80
2022-11-02T09:51:08.753Z,23.10
2022-11-02T09:53:49.917Z,21.20
2022-11-02T09:56:20.629Z,22.50
2022-11-02T09:58:54.543Z,21.60
2022-11-02T10:01:34.513Z,22.70
2022-11-02T10:04:21.565Z,22.10
2022-11-02T10:06:56.854Z,22.80
2022-11-02T10:09:29.382Z,22.60
2022-11-02T10:12:03.333Z,22.20
2022-11-02T10:14:36.796Z,20.90
2022-11-02T10:17:13.592Z,21.10
2022-11-02T10:19:45.164Z,22.00
2022-11-02T10:22:16.200Z,21.50
2022-11-02T10:24:45.290Z,22.80
2022-11-02T10:27:21.228Z,22.60
2022-11-02T10:29:59.206Z,22.50
2022-11-02T10:32:26.433Z,22.80
2022-11-02T10:34:58.966Z,22.70
2022-11-02T10:37:49.412Z,22.10
2022-11-02T10:40:32.772Z,23.30
2022-11-02T10:43:14.911Z,22.50
2022-11-02T10:46:03.397Z,22.20
2022-11-02T10:48:39.493Z,22.00
2022-11-02T10:51:12.454Z,21.70
2022-11-02T10:53:43.357Z,20.90
2022-11-02T10:56:16.691Z,20.90
2022-11-02T10:58:51.175Z,19.80
2022-11-02T11:01:18.764Z,20.60
2022-11-02T11:04:00.350Z,20.20
2022-11-02T11:06:28.935Z,19.30
2022-11-02T11:09:02.307Z,19.70
2022-11-02T11:11:31.976Z,18.20
2022-11-02T11:16:53.264Z,18.70
2022-11-02T11:22:29.752Z,17.40
2022-11-02T11:25:16.704Z,16.40
2022-11-02T11:27:48.614Z,16.20
2022-11-02T11:30:54.012Z,15.20
2022-11-02T11:33:23.078Z,15.90
2022-11-02T11:35:53.504Z,13.90
2022-11-02T11:38:23.917Z,14.90
2022-11-02T11:40:54.337Z,14.20
2022-11-02T11:43:23.455Z,14.50
2022-11-02T11:46:05.302Z,16.00
2022-11-02T11:48:39.111Z,16.60
2022-11-02T11:51:24.396Z,15.00
2022-11-02T11:54:18.230Z,16.10
2022-11-02T11:56:45.195Z,15.80
2022-11-02T11:59:24.555Z,15.70
2022-11-02T12:01:53.284Z,15.50
2022-11-02T12:04:30.817Z,16.30
2022-11-02T12:07:07.859Z,16.10
2022-11-02T12:12:14.166Z,18.00
2022-11-02T12:17:27.656Z,17.00
2022-11-02T12:20:12.200Z,17.80
2022-11-02T12:22:50.991Z,16.70
2022-11-02T12:25:41.813Z,16.50
2022-11-02T12:28:23.956Z,16.60
2022-11-02T12:31:02.591Z,15.50
2022-11-02T12:33:44.240Z,15.70
2022-11-02T12:36:20.863Z,15.10
2022-11-02T12:38:58.029Z,16.30
2022-11-02T12:41:39.067Z,16.20
2022-11-02T12:44:18.427Z,15.40
2022-11-02T12:46:53.794Z,15.10
2022-11-02T12:49:36.032Z,16.50
2022-11-02T12:52:14.484Z,15.40
2022-11-02T12:54:46.972Z,13.60
2022-11-02T12:57:18.447Z,15.80
2022-11-02T12:59:47.640Z,15.70
2022-11-02T13:02:19.909Z,16.30
2022-11-02T13:04:52.538Z,14.90
2022-11-02T13:07:27.189Z,15.40
2022-11-02T13:10:02.033Z,14.60
2022-11-02T13:12:31.911Z,14.40
2022-11-02T13:15:02.235Z,14.40
2022-11-02T13:17:37.074Z,14.00
2022-11-02T13:20:14.479Z,14.00
2022-11-02T13:22:44.098Z,13.30
2022-11-02T13:25:20.826Z,13.30
2022-11-02T13:27:52.984Z,13.00
2022-11-02T13:30:21.044Z,15.40
2022-11-02T13:32:51.247Z,15.30
2022-11-02T13:35:23.888Z,16.60
2022-11-02T13:37:54.621Z,16.00
2022-11-02T13:40:26.732Z,17.50
2022-11-02T13:43:30.489Z,16.20
2022-11-02T13:46:14.909Z,16.20
2022-11-02T13:48:52.603Z,16.70
2022-11-02T13:51:30.149Z,16.50
2022-11-02T13:54:02.168Z,16.60
2022-11-02T13:56:31.190Z,16.60
2022-11-02T13:59:01.970Z,17.50
2022-11-02T14:01:33.007Z,17.40
2022-11-02T14:04:04.034Z,17.30
2022-11-02T14:06:33.329Z,19.30
2022-11-02T14:09:03.458Z,19.30
2022-11-02T14:11:37.798Z,18.50
2022-11-02T14:14:22.844Z,19.10
2022-11-02T14:17:13.031Z,18.80
2022-11-02T14:19:55.096Z,19.30
2022-11-02T14:22:23.517Z,20.20
2022-11-02T14:25:18.837Z,18.50
2022-11-02T14:27:46.104Z,19.00
2022-11-02T14:30:46.734Z,19.00
2022-11-02T14:33:33.333Z,19.20
2022-11-02T14:36:06.012Z,20.80
2022-11-02T14:38:53.843Z,19.60
2022-11-02T14:41:47.215Z,19.70
2022-11-02T14:44:35.104Z,20.30
2022-11-02T14:47:09.803Z,19.20
2022-11-02T14:49:41.141Z,20.00
2022-11-02T14:52:23.948Z,20.60
2022-11-02T14:54:54.679Z,20.60
2022-11-02T14:57:28.717Z,20.10
2022-11-02T14:59:59.102Z,21.60
2022-11-02T15:02:31.262Z,20.50
2022-11-02T15:05:00.648Z,20.60
2022-11-02T15:07:35.957Z,26.90
2022-11-02T15:10:04.197Z,25.50
2022-11-02T15:12:35.988Z,26.50
2022-11-02T15:15:07.733Z,21.10
2022-11-02T15:17:59.675Z,21.00
2022-11-02T15:20:34.698Z,22.30
2022-11-02T15:23:31.429Z,22.00
2022-11-02T15:26:01.679Z,22.20
2022-11-02T15:28:33.793Z,23.00
2022-11-02T15:31:05.710Z,22.60
2022-11-02T15:33:39.904Z,23.20
2022-11-02T15:36:10.135Z,23.60
2022-11-02T15:38:40.185Z,21.70
2022-11-02T15:41:19.658Z,23.60
2022-11-02T15:43:59.120Z,24.10
2022-11-02T15:46:44.357Z,24.00
2022-11-02T15:49:24.048Z,24.50
2022-11-02T15:51:57.788Z,25.30
2022-11-02T15:54:49.745Z,23.90
2022-11-02T15:57:25.749Z,25.20
2022-11-02T16:00:13.323Z,24.60
2022-11-02T16:05:17.190Z,23.90
2022-11-02T16:08:05.216Z,25.00
2022-11-02T16:10:34.603Z,26.00
2022-11-02T16:13:11.860Z,25.70
2022-11-02T16:15:42.223Z,27.70
2022-11-02T16:18:22.770Z,26.30
2022-11-02T16:20:49.794Z,23.80
2022-11-02T16:23:24.315Z,28.10
2022-11-02T16:25:54.780Z,27.00
2022-11-02T16:28:24.512Z,25.90
2022-11-02T16:31:14.418Z,24.00
2022-11-02T16:33:44.803Z,24.70
2022-11-02T16:36:13.775Z,23.00
2022-11-02T16:38:46.847Z,23.90
2022-11-02T16:41:17.609Z,22.80
2022-11-02T16:43:47.852Z,22.20
2022-11-02T16:46:18.337Z,21.00
2022-11-02T16:49:09.386Z,22.20
2022-11-02T16:51:36.784Z,22.10
2022-11-02T16:54:27.170Z,23.40
2022-11-02T16:56:56.813Z,19.00
2022-11-02T16:59:25.646Z,18.70
2022-11-02T17:01:58.452Z,17.00
2022-11-02T17:04:27.681Z,18.80
2022-11-02T17:06:56.880Z,17.40
2022-11-02T17:09:28.329Z,18.50
2022-11-02T17:11:58.002Z,18.60
2022-11-02T17:14:26.631Z,18.60
2022-11-02T17:17:09.481Z,17.80
2022-11-02T17:19:57.765Z,18.50
2022-11-02T17:22:30.337Z,16.20
2022-11-02T17:25:14.521Z,16.30
2022-11-02T17:27:43.008Z,16.40
2022-11-02T17:30:48.358Z,17.50
2022-11-02T17:33:25.039Z,18.60
2022-11-02T17:35:53.840Z,19.50
2022-11-02T17:38:22.468Z,19.70
2022-11-02T17:40:52.295Z,20.20
2022-11-02T17:43:19.295Z,18.60
2022-11-02T17:45:54.371Z,16.90
2022-11-02T17:48:21.367Z,17.30
2022-11-02T17:50:53.144Z,16.90
2022-11-02T17:53:20.105Z,16.60
2022-11-02T17:55:47.007Z,17.20
2022-11-02T17:58:15.380Z,16.30
2022-11-02T18:00:42.871Z,16.50
2022-11-02T18:03:17.504Z,15.50
2022-11-02T18:05:48.521Z,14.60
2022-11-02T18:08:17.267Z,14.50
2022-11-02T18:10:46.052Z,14.30
2022-11-02T18:13:14.754Z,12.70
2022-11-02T18:15:42.218Z,13.40
2022-11-02T18:18:09.538Z,12.10
2022-11-02T18:20:41.558Z,13.50
2022-11-02T18:23:15.070Z,12.00
2022-11-02T18:25:41.992Z,12.40
2022-11-02T18:28:09.180Z,12.50
2022-11-02T18:30:36.455Z,13.00
2022-11-02T18:33:03.779Z,12.20
2022-11-02T18:35:30.696Z,11.60
2022-11-02T18:37:57.745Z,11.90
2022-11-02T18:40:25.146Z,12.40
2022-11-02T18:42:52.556Z,10.90
2022-11-02T18:45:19.906Z,11.50
2022-11-02T18:47:47.013Z,10.90
2022-11-02T18:50:15.138Z,11.30
2022-11-02T18:52:49.650Z,11.50
2022-11-02T18:55:21.182Z,11.20
2022-11-02T18:57:50.969Z,10.80
2022-11-02T19:00:18.975Z,11.20
2022-11-02T19:02:46.301Z,11.80
2022-11-02T19:05:27.215Z,11.40
2022-11-02T19:08:11.924Z,11.80
2022-11-02T19:10:38.863Z,11.30
2022-11-02T19:13:06.063Z,11.40
2022-11-02T19:15:39.783Z,11.30
2022-11-02T19:18:10.487Z,12.10
2022-11-02T19:20:37.401Z,12.80
2022-11-02T19:23:04.258Z,12.40
2022-11-02T19:25:31.276Z,12.20
2022-11-02T19:27:58.240Z,12.30
2022-11-02T19:30:25.253Z,12.40
2022-11-02T19:32:52.218Z,11.80
2022-11-02T19:35:21.375Z,11.60
2022-11-02T19:37:48.339Z,10.80
2022-11-02T19:40:18.182Z,12.00
2022-11-02T19:42:49.865Z,11.40
2022-11-02T19:45:17.923Z,12.10
2022-11-02T19:47:45.090Z,12.00
2022-11-02T19:50:12.559Z,13.30
2022-11-02T19:52:39.485Z,11.90
2022-11-02T19:55:07.038Z,12.80
2022-11-02T19:57:33.987Z,12.50
2022-11-02T20:00:00.872Z,11.50
2022-11-02T20:02:27.889Z,11.60
2022-11-02T20:04:54.919Z,12.10
2022-11-02T20:07:21.926Z,11.70
2022-11-02T20:09:49.007Z,12.40
2022-11-02T20:12:15.862Z,11.80
2022-11-02T20:14:42.755Z,12.90
2022-11-02T20:17:30.255Z,11.60
2022-11-02T20:19:56.500Z,12.20
2022-11-02T20:22:23.656Z,11.90
2022-11-02T20:24:50.658Z,12.10
2022-11-02T20:27:17.840Z,11.30
2022-11-02T20:29:44.882Z,10.70
2022-11-02T20:32:12.670Z,12.10
2022-11-02T20:34:39.834Z,11.20
2022-11-02T20:37:07.638Z,11.60
2022-11-02T20:39:35.194Z,11.60
2022-11-02T20:42:02.250Z,10.90
2022-11-02T20:44:29.357Z,11.90
2022-11-02T20:46:57.530Z,11.40
2022-11-02T20:49:54.363Z,11.50
2022-11-02T20:52:12.825Z,11.50
2022-11-02T20:54:40.039Z,11.00
2022-11-02T20:57:07.609Z,10.90
2022-11-02T20:59:34.425Z,11.10
2022-11-02T21:02:01.484Z,10.60
2022-11-02T21:04:28.572Z,10.00
2022-11-02T21:06:55.528Z,10.70
2022-11-02T21:09:24.515Z,10.20
2022-11-02T21:12:09.545Z,10.50
2022-11-02T21:14:36.595Z,9.60
2022-11-02T21:17:05.597Z,10.20
2022-11-02T21:19:32.573Z,10.10
2022-11-02T21:22:00.673Z,9.90
2022-11-02T21:24:28.019Z,9.90
2022-11-02T21:26:54.936Z,10.00
2022-11-02T21:29:22.706Z,10.20
2022-11-02T21:31:49.947Z,11.60
2022-11-02T21:34:17.516Z,10.90
2022-11-02T21:36:44.527Z,11.40
2022-11-02T21:39:11.614Z,11.50
2022-11-02T21:41:39.635Z,11.00
2022-11-02T21:44:07.838Z,12.10
2022-11-02T21:46:35.122Z,12.70
2022-11-02T21:49:03.191Z,12.00
2022-11-02T21:51:30.335Z,12.00
2022-11-02T21:53:57.382Z,12.40
2022-11-02T21:56:26.700Z,12.90
2022-11-02T21:58:54.231Z,12.10
2022-11-02T22:01:48.684Z,11.90
2022-11-02T22:04:19.520Z,12.00
2022-11-02T22:06:49.212Z,11.00
2022-11-02T22:09:16.410Z,11.90
2022-11-02T22:11:45.078Z,11.40
2022-11-02T22:14:12.430Z,10.40
2022-11-02T22:16:41.171Z,10.80
2022-11-02T22:19:10.003Z,11.30
2022-11-02T22:21:40.081Z,10.50
2022-11-02T22:24:08.110Z,10.80
2022-11-02T22:26:39.371Z,10.10
2022-11-02T22:29:07.253Z,10.20
2022-11-02T22:31:35.879Z,10.10
2022-11-02T22:34:04.938Z,10.80
2022-11-02T22:36:34.217Z,10.50
2022-11-02T22:39:02.559Z,10.20
2022-11-02T22:41:30.909Z,10.80
2022-11-02T22:43:59.062Z,10.20
2022-11-02T22:46:28.502Z,10.30
2022-11-02T22:48:57.103Z,10.30
2022-11-02T22:51:27.856Z,10.10
2022-11-02T22:53:55.951Z,9.90
2022-11-02T22:56:24.530Z,10.60
2022-11-02T22:58:52.448Z,9.80
2022-11-02T23:01:21.484Z,10.00
2022-11-02T23:03:50.586Z,11.00
2022-11-02T23:06:21.345Z,10.00
2022-11-02T23:08:49.148Z,10.40
2022-11-02T23:11:23.862Z,9.90
2022-11-02T23:13:52.680Z,9.20
2022-11-02T23:16:23.929Z,10.10
2022-11-02T23:19:10.945Z,9.30
2022-11-02T23:21:38.710Z,8.70
2022-11-02T23:24:23.805Z,9.10
2022-11-02T23:26:50.828Z,9.40
2022-11-02T23:29:31.522Z,8.50
2022-11-02T23:32:16.580Z,8.10
2022-11-02T23:35:03.983Z,7.80
2022-11-02T23:37:31.667Z,6.90
2022-11-02T23:39:58.800Z,7.40
2022-11-02T23:42:28.099Z,7.00
2022-11-02T23:44:57.438Z,6.90
2022-11-02T23:47:44.992Z,6.90
2022-11-02T23:50:35.628Z,6.90
2022-11-02T23:53:20.137Z,6.20
2022-11-02T23:56:07.451Z,6.30
2022-11-02T23:58:34.504Z,6.20
